2W6

St Mary's County Regional Airport

Leonardtown, Maryland, USA
METAR K2W6 212257Z AUTO 07007KT OVC005 22/22 A2969 RMK AO1
Observed Flight Rules
Jul-21 @ 22:57 UTC (13 minutes ago)
Wind Clouds
70° at 7 knots
  • Overcast at 500' AGL
Temperatures Readings
Current 22°C / 72°F
Dewpoint 22°C / 72°F
Humidity 100%
Altimeter 29.69" Hg
Pressure 1005 hPa
Elevation 44
METAR K2W6 212257Z AUTO 07007KT OVC005 22/22 A2969 RMK AO1
Observed Flight Rules
Jul-21 @ 22:57 UTC
(13 minutes ago)
Wind
70° at 7 knots
Clouds
  • Overcast at 500' AGL
Temperature Dewpoint
22°C / 72°F 22°C / 72°F
Humidity Altimeter Pressure
100% 29.69" Hg 1005 hPa